PNCOM weather

La Comina
Pordenone (PN), Friuli-Venezia Giulia, Italy

Public forecast

Using degrees Celsius for public forecast. Weather courtesy of forecast.io.

Closest aviation weather report (METAR) to La Comina

Closest report is Aviano Air Base, 3.6 nm (6.7 km) NW. Retrieved 2020/08/03 10:55 UTC (48 minutes ago):

LIPA 031055Z 05006KT 9999 FEW040 BKN090 26/18 Q1006 RMK BKN VIS MIN 9999 WIND THR05 /////KT WIND THR23 /////KT A2973 BLU

Closest aviation forecast (TAF) to La Comina

Forecast is more than 12 hours old.

Closest forecast is Aviano Air Base, 3.6 nm (6.7 km) NW. Retrieved 2015/11/03 12:24 UTC (5 years ago):

TAF TAF LIPA 031100Z 0312/0324 VRB03KT CAVOK